sensor_id;sensor_type;location;lat;lon;timestamp;pressure;altitude;pressure_sealevel;temperature;humidity
84593;BME280;74832;51.656;5.298;2024-03-25T00:00:02;100843.00;;;15.46;60.40
84593;BME280;74832;51.656;5.298;2024-03-25T00:00:32;100841.90;;;15.49;60.38
84593;BME280;74832;51.656;5.298;2024-03-25T00:01:03;100841.55;;;15.51;60.32
84593;BME280;74832;51.656;5.298;2024-03-25T00:01:33;100838.55;;;15.50;60.23
84593;BME280;74832;51.656;5.298;2024-03-25T00:02:04;100839.14;;;15.53;60.15
84593;BME280;74832;51.656;5.298;2024-03-25T00:02:34;100838.60;;;15.47;60.30
84593;BME280;74832;51.656;5.298;2024-03-25T00:03:05;100837.55;;;15.49;60.28
84593;BME280;74832;51.656;5.298;2024-03-25T00:03:35;100837.06;;;15.50;60.29
84593;BME280;74832;51.656;5.298;2024-03-25T00:04:05;100837.67;;;15.52;60.24
84593;BME280;74832;51.656;5.298;2024-03-25T00:04:36;100838.02;;;15.40;60.56
84593;BME280;74832;51.656;5.298;2024-03-25T00:05:07;100835.87;;;15.45;60.42
84593;BME280;74832;51.656;5.298;2024-03-25T00:05:38;100836.67;;;15.52;60.26
84593;BME280;74832;51.656;5.298;2024-03-25T00:06:08;100837.68;;;15.41;60.47
84593;BME280;74832;51.656;5.298;2024-03-25T00:06:38;100835.63;;;15.44;60.46
84593;BME280;74832;51.656;5.298;2024-03-25T00:07:09;100836.36;;;15.42;60.54
84593;BME280;74832;51.656;5.298;2024-03-25T00:07:40;100834.93;;;15.43;60.50
84593;BME280;74832;51.656;5.298;2024-03-25T00:08:10;100835.58;;;15.40;60.59
84593;BME280;74832;51.656;5.298;2024-03-25T00:08:40;100835.98;;;15.39;60.57
84593;BME280;74832;51.656;5.298;2024-03-25T00:09:11;100835.46;;;15.40;60.57
84593;BME280;74832;51.656;5.298;2024-03-25T00:09:41;100835.43;;;15.31;60.82
84593;BME280;74832;51.656;5.298;2024-03-25T00:10:11;100835.31;;;15.43;60.53
84593;BME280;74832;51.656;5.298;2024-03-25T00:10:42;100835.97;;;15.46;60.42
84593;BME280;74832;51.656;5.298;2024-03-25T00:11:12;100836.89;;;15.43;60.54
84593;BME280;74832;51.656;5.298;2024-03-25T00:11:43;100836.24;;;15.44;60.47
84593;BME280;74832;51.656;5.298;2024-03-25T00:12:13;100834.15;;;15.42;60.54
84593;BME280;74832;51.656;5.298;2024-03-25T00:12:44;100834.42;;;15.41;60.64
84593;BME280;74832;51.656;5.298;2024-03-25T00:13:14;100836.08;;;15.38;60.71
84593;BME280;74832;51.656;5.298;2024-03-25T00:13:44;100834.88;;;15.35;60.79
84593;BME280;74832;51.656;5.298;2024-03-25T00:14:15;100834.60;;;15.42;60.60
84593;BME280;74832;51.656;5.298;2024-03-25T00:14:45;100833.77;;;15.39;60.66
84593;BME280;74832;51.656;5.298;2024-03-25T00:15:15;100830.42;;;15.45;60.52
84593;BME280;74832;51.656;5.298;2024-03-25T00:15:46;100833.76;;;15.42;60.55
84593;BME280;74832;51.656;5.298;2024-03-25T00:16:16;100833.90;;;15.40;60.64
84593;BME280;74832;51.656;5.298;2024-03-25T00:16:46;100830.75;;;15.47;60.43
84593;BME280;74832;51.656;5.298;2024-03-25T00:17:17;100832.05;;;15.51;60.32
84593;BME280;74832;51.656;5.298;2024-03-25T00:17:47;100833.13;;;15.50;60.39
84593;BME280;74832;51.656;5.298;2024-03-25T00:18:18;100834.99;;;15.47;60.40
84593;BME280;74832;51.656;5.298;2024-03-25T00:18:48;100833.98;;;15.42;60.54
84593;BME280;74832;51.656;5.298;2024-03-25T00:19:19;100834.71;;;15.39;60.60
84593;BME280;74832;51.656;5.298;2024-03-25T00:19:49;100837.33;;;15.44;60.50
84593;BME280;74832;51.656;5.298;2024-03-25T00:20:19;100839.21;;;15.36;60.75
84593;BME280;74832;51.656;5.298;2024-03-25T00:20:50;100839.42;;;15.34;60.77
84593;BME280;74832;51.656;5.298;2024-03-25T00:21:20;100839.38;;;15.38;60.77
84593;BME280;74832;51.656;5.298;2024-03-25T00:21:51;100840.05;;;15.34;60.79
84593;BME280;74832;51.656;5.298;2024-03-25T00:22:22;100841.07;;;15.33;60.91
84593;BME280;74832;51.656;5.298;2024-03-25T00:22:52;100839.93;;;15.29;60.99
84593;BME280;74832;51.656;5.298;2024-03-25T00:23:22;100839.29;;;15.36;60.75
84593;BME280;74832;51.656;5.298;2024-03-25T00:23:53;100841.40;;;15.37;60.80
84593;BME280;74832;51.656;5.298;2024-03-25T00:24:23;100838.79;;;15.39;60.71
84593;BME280;74832;51.656;5.298;2024-03-25T00:24:53;100840.15;;;15.40;60.68
84593;BME280;74832;51.656;5.298;2024-03-25T00:25:24;100839.36;;;15.39;60.65
84593;BME280;74832;51.656;5.298;2024-03-25T00:25:54;100839.00;;;15.37;60.72
84593;BME280;74832;51.656;5.298;2024-03-25T00:26:25;100837.51;;;15.41;60.61
84593;BME280;74832;51.656;5.298;2024-03-25T00:26:55;100836.24;;;15.45;60.57
84593;BME280;74832;51.656;5.298;2024-03-25T00:27:25;100837.11;;;15.36;60.78
84593;BME280;74832;51.656;5.298;2024-03-25T00:27:56;100835.39;;;15.32;60.85
84593;BME280;74832;51.656;5.298;2024-03-25T00:28:26;100835.04;;;15.29;60.95
84593;BME280;74832;51.656;5.298;2024-03-25T00:28:56;100832.72;;;15.32;60.95
84593;BME280;74832;51.656;5.298;2024-03-25T00:29:27;100829.44;;;15.39;60.65
84593;BME280;74832;51.656;5.298;2024-03-25T00:29:57;100829.36;;;15.35;60.83
84593;BME280;74832;51.656;5.298;2024-03-25T00:30:27;100826.86;;;15.37;60.74
84593;BME280;74832;51.656;5.298;2024-03-25T00:30:58;100827.89;;;15.32;60.95
84593;BME280;74832;51.656;5.298;2024-03-25T00:31:28;100825.56;;;15.38;60.69
84593;BME280;74832;51.656;5.298;2024-03-25T00:31:59;100826.74;;;15.39;60.69
84593;BME280;74832;51.656;5.298;2024-03-25T00:32:29;100828.58;;;15.37;60.76
84593;BME280;74832;51.656;5.298;2024-03-25T00:32:59;100826.79;;;15.35;60.78
84593;BME280;74832;51.656;5.298;2024-03-25T00:33:30;100826.28;;;15.38;60.66
84593;BME280;74832;51.656;5.298;2024-03-25T00:34:00;100826.09;;;15.38;60.73
84593;BME280;74832;51.656;5.298;2024-03-25T00:34:31;100826.28;;;15.34;60.75
84593;BME280;74832;51.656;5.298;2024-03-25T00:35:01;100826.74;;;15.30;60.90
84593;BME280;74832;51.656;5.298;2024-03-25T00:35:31;100826.57;;;15.33;60.80
84593;BME280;74832;51.656;5.298;2024-03-25T00:36:02;100829.28;;;15.38;60.71
84593;BME280;74832;51.656;5.298;2024-03-25T00:36:32;100827.54;;;15.38;60.67
84593;BME280;74832;51.656;5.298;2024-03-25T00:37:03;100830.38;;;15.33;60.83
84593;BME280;74832;51.656;5.298;2024-03-25T00:37:34;100831.84;;;15.29;60.91
84593;BME280;74832;51.656;5.298;2024-03-25T00:38:04;100829.21;;;15.30;60.94
84593;BME280;74832;51.656;5.298;2024-03-25T00:38:35;100831.38;;;15.33;60.88
84593;BME280;74832;51.656;5.298;2024-03-25T00:39:05;100831.16;;;15.36;60.81
84593;BME280;74832;51.656;5.298;2024-03-25T00:39:36;100831.52;;;15.39;60.71
84593;BME280;74832;51.656;5.298;2024-03-25T00:40:07;100831.07;;;15.27;61.05
84593;BME280;74832;51.656;5.298;2024-03-25T00:40:38;100831.05;;;15.23;61.16
84593;BME280;74832;51.656;5.298;2024-03-25T00:41:08;100831.17;;;15.29;61.07
84593;BME280;74832;51.656;5.298;2024-03-25T00:41:39;100831.41;;;15.27;61.13
84593;BME280;74832;51.656;5.298;2024-03-25T00:42:09;100831.03;;;15.36;60.81
84593;BME280;74832;51.656;5.298;2024-03-25T00:42:40;100828.75;;;15.36;60.80
84593;BME280;74832;51.656;5.298;2024-03-25T00:43:10;100830.10;;;15.29;61.03
84593;BME280;74832;51.656;5.298;2024-03-25T00:43:40;100831.21;;;15.24;61.20
84593;BME280;74832;51.656;5.298;2024-03-25T00:44:11;100830.83;;;15.30;61.01
84593;BME280;74832;51.656;5.298;2024-03-25T00:44:41;100829.56;;;15.30;61.00
84593;BME280;74832;51.656;5.298;2024-03-25T00:45:11;100831.27;;;15.26;61.14
84593;BME280;74832;51.656;5.298;2024-03-25T00:45:42;100832.58;;;15.29;61.05
84593;BME280;74832;51.656;5.298;2024-03-25T00:46:12;100829.55;;;15.34;60.91
84593;BME280;74832;51.656;5.298;2024-03-25T00:46:43;100829.49;;;15.29;61.05
84593;BME280;74832;51.656;5.298;2024-03-25T00:47:13;100830.44;;;15.28;61.11
84593;BME280;74832;51.656;5.298;2024-03-25T00:47:44;100829.83;;;15.22;61.31
84593;BME280;74832;51.656;5.298;2024-03-25T00:48:14;100829.21;;;15.21;61.37
84593;BME280;74832;51.656;5.298;2024-03-25T00:48:44;100830.49;;;15.25;61.22
84593;BME280;74832;51.656;5.298;2024-03-25T00:49:15;100830.46;;;15.32;61.01
84593;BME280;74832;51.656;5.298;2024-03-25T00:49:45;100827.59;;;15.33;60.94
84593;BME280;74832;51.656;5.298;2024-03-25T00:50:16;100828.47;;;15.26;61.15
84593;BME280;74832;51.656;5.298;2024-03-25T00:50:46;100829.17;;;15.20;61.37
84593;BME280;74832;51.656;5.298;2024-03-25T00:51:20;100828.72;;;15.25;61.10
84593;BME280;74832;51.656;5.298;2024-03-25T00:51:50;100827.09;;;15.29;60.97
84593;BME280;74832;51.656;5.298;2024-03-25T00:52:21;100827.29;;;15.32;60.97
84593;BME280;74832;51.656;5.298;2024-03-25T00:52:51;100827.11;;;15.29;61.05
84593;BME280;74832;51.656;5.298;2024-03-25T00:53:21;100826.80;;;15.32;60.95
84593;BME280;74832;51.656;5.298;2024-03-25T00:53:52;100827.30;;;15.28;61.09
84593;BME280;74832;51.656;5.298;2024-03-25T00:54:22;100828.36;;;15.26;61.14
84593;BME280;74832;51.656;5.298;2024-03-25T00:54:52;100830.35;;;15.24;61.20
84593;BME280;74832;51.656;5.298;2024-03-25T00:55:23;100830.53;;;15.23;61.25
84593;BME280;74832;51.656;5.298;2024-03-25T00:55:53;100830.96;;;15.20;61.36
84593;BME280;74832;51.656;5.298;2024-03-25T00:56:24;100834.64;;;15.19;61.36
84593;BME280;74832;51.656;5.298;2024-03-25T00:56:54;100834.15;;;15.20;61.31
84593;BME280;74832;51.656;5.298;2024-03-25T00:57:25;100833.06;;;15.26;61.14
84593;BME280;74832;51.656;5.298;2024-03-25T00:57:55;100835.12;;;15.25;61.30
84593;BME280;74832;51.656;5.298;2024-03-25T00:58:25;100835.00;;;15.22;61.38
84593;BME280;74832;51.656;5.298;2024-03-25T00:58:56;100836.87;;;15.22;61.29
84593;BME280;74832;51.656;5.298;2024-03-25T00:59:26;100837.58;;;15.18;61.41
84593;BME280;74832;51.656;5.298;2024-03-25T00:59:57;100840.81;;;15.14;61.52
84593;BME280;74832;51.656;5.298;2024-03-25T01:00:27;100842.63;;;15.18;61.44
84593;BME280;74832;51.656;5.298;2024-03-25T01:00:58;100841.69;;;15.21;61.37
84593;BME280;74832;51.656;5.298;2024-03-25T01:01:28;100842.67;;;15.17;61.48
84593;BME280;74832;51.656;5.298;2024-03-25T01:01:58;100841.44;;;15.17;61.47
84593;BME280;74832;51.656;5.298;2024-03-25T01:02:29;100842.06;;;15.14;61.57
84593;BME280;74832;51.656;5.298;2024-03-25T01:02:59;100841.48;;;15.15;61.57
84593;BME280;74832;51.656;5.298;2024-03-25T01:03:30;100844.62;;;15.21;61.43
84593;BME280;74832;51.656;5.298;2024-03-25T01:04:00;100844.48;;;15.18;61.56
84593;BME280;74832;51.656;5.298;2024-03-25T01:04:30;100845.07;;;15.17;61.49
84593;BME280;74832;51.656;5.298;2024-03-25T01:05:01;100843.00;;;15.15;61.51
84593;BME280;74832;51.656;5.298;2024-03-25T01:05:31;100843.05;;;15.18;61.46
84593;BME280;74832;51.656;5.298;2024-03-25T01:06:01;100843.07;;;15.19;61.41
84593;BME280;74832;51.656;5.298;2024-03-25T01:06:32;100844.40;;;15.21;61.35
84593;BME280;74832;51.656;5.298;2024-03-25T01:07:02;100846.74;;;15.13;61.55
84593;BME280;74832;51.656;5.298;2024-03-25T01:07:32;100845.61;;;15.16;61.48
84593;BME280;74832;51.656;5.298;2024-03-25T01:08:04;100845.49;;;15.14;61.56
84593;BME280;74832;51.656;5.298;2024-03-25T01:08:34;100846.34;;;15.14;61.53
84593;BME280;74832;51.656;5.298;2024-03-25T01:09:04;100846.29;;;15.09;61.68
84593;BME280;74832;51.656;5.298;2024-03-25T01:09:35;100847.89;;;15.10;61.66
84593;BME280;74832;51.656;5.298;2024-03-25T01:10:06;100849.20;;;15.10;61.63
84593;BME280;74832;51.656;5.298;2024-03-25T01:10:37;100848.45;;;15.04;61.77
84593;BME280;74832;51.656;5.298;2024-03-25T01:11:07;100849.48;;;15.07;61.80
84593;BME280;74832;51.656;5.298;2024-03-25T01:11:37;100847.15;;;15.08;61.69
84593;BME280;74832;51.656;5.298;2024-03-25T01:12:08;100846.22;;;15.04;61.86
84593;BME280;74832;51.656;5.298;2024-03-25T01:12:38;100846.70;;;15.02;61.99
84593;BME280;74832;51.656;5.298;2024-03-25T01:13:08;100847.35;;;15.05;61.86
84593;BME280;74832;51.656;5.298;2024-03-25T01:13:39;100848.95;;;15.07;61.93
84593;BME280;74832;51.656;5.298;2024-03-25T01:14:09;100847.84;;;15.14;61.57
84593;BME280;74832;51.656;5.298;2024-03-25T01:14:39;100848.87;;;15.07;61.77
84593;BME280;74832;51.656;5.298;2024-03-25T01:15:10;100847.34;;;15.11;61.74
84593;BME280;74832;51.656;5.298;2024-03-25T01:15:40;100847.55;;;15.13;61.61
84593;BME280;74832;51.656;5.298;2024-03-25T01:16:11;100848.39;;;15.04;61.96
84593;BME280;74832;51.656;5.298;2024-03-25T01:16:41;100847.53;;;15.03;61.88
84593;BME280;74832;51.656;5.298;2024-03-25T01:17:11;100847.70;;;15.05;61.91
84593;BME280;74832;51.656;5.298;2024-03-25T01:17:42;100846.95;;;15.11;61.77
84593;BME280;74832;51.656;5.298;2024-03-25T01:18:12;100847.48;;;15.04;61.91
84593;BME280;74832;51.656;5.298;2024-03-25T01:18:42;100846.79;;;15.06;61.90
84593;BME280;74832;51.656;5.298;2024-03-25T01:19:13;100845.45;;;14.99;62.07
84593;BME280;74832;51.656;5.298;2024-03-25T01:19:43;100843.61;;;15.03;61.92
84593;BME280;74832;51.656;5.298;2024-03-25T01:20:14;100842.47;;;15.05;61.86
84593;BME280;74832;51.656;5.298;2024-03-25T01:20:44;100841.58;;;15.11;61.72
84593;BME280;74832;51.656;5.298;2024-03-25T01:21:15;100842.02;;;15.01;61.96
84593;BME280;74832;51.656;5.298;2024-03-25T01:21:45;100840.81;;;15.12;61.68
84593;BME280;74832;51.656;5.298;2024-03-25T01:22:15;100843.32;;;15.07;61.85
84593;BME280;74832;51.656;5.298;2024-03-25T01:22:46;100837.86;;;15.10;61.75
84593;BME280;74832;51.656;5.298;2024-03-25T01:23:16;100838.86;;;15.11;61.69
84593;BME280;74832;51.656;5.298;2024-03-25T01:23:46;100839.80;;;15.03;61.84
84593;BME280;74832;51.656;5.298;2024-03-25T01:24:17;100836.17;;;15.12;61.63
84593;BME280;74832;51.656;5.298;2024-03-25T01:24:47;100838.56;;;14.98;61.97
84593;BME280;74832;51.656;5.298;2024-03-25T01:25:17;100841.02;;;15.05;61.79
84593;BME280;74832;51.656;5.298;2024-03-25T01:25:48;100840.66;;;15.04;61.90
84593;BME280;74832;51.656;5.298;2024-03-25T01:26:18;100844.77;;;15.06;61.82
84593;BME280;74832;51.656;5.298;2024-03-25T01:26:48;100844.31;;;15.12;61.63
84593;BME280;74832;51.656;5.298;2024-03-25T01:27:19;100844.29;;;15.11;61.63
84593;BME280;74832;51.656;5.298;2024-03-25T01:27:49;100843.09;;;15.13;61.58
84593;BME280;74832;51.656;5.298;2024-03-25T01:28:20;100846.54;;;15.05;61.76
84593;BME280;74832;51.656;5.298;2024-03-25T01:28:50;100846.46;;;15.09;61.82
84593;BME280;74832;51.656;5.298;2024-03-25T01:29:20;100848.64;;;15.03;61.87
84593;BME280;74832;51.656;5.298;2024-03-25T01:29:51;100849.23;;;15.04;61.96
84593;BME280;74832;51.656;5.298;2024-03-25T01:30:21;100848.35;;;15.04;61.90
84593;BME280;74832;51.656;5.298;2024-03-25T01:30:52;100850.14;;;15.00;61.99
84593;BME280;74832;51.656;5.298;2024-03-25T01:31:22;100850.98;;;15.01;61.89
84593;BME280;74832;51.656;5.298;2024-03-25T01:31:52;100852.15;;;15.02;61.98
84593;BME280;74832;51.656;5.298;2024-03-25T01:32:23;100851.83;;;15.04;61.90
84593;BME280;74832;51.656;5.298;2024-03-25T01:32:53;100853.23;;;15.00;62.06
84593;BME280;74832;51.656;5.298;2024-03-25T01:33:24;100853.15;;;15.02;61.95
84593;BME280;74832;51.656;5.298;2024-03-25T01:33:54;100852.83;;;15.05;61.82
84593;BME280;74832;51.656;5.298;2024-03-25T01:34:24;100852.73;;;15.05;61.89
84593;BME280;74832;51.656;5.298;2024-03-25T01:34:55;100853.51;;;14.96;62.13
84593;BME280;74832;51.656;5.298;2024-03-25T01:35:25;100851.83;;;15.01;61.99
84593;BME280;74832;51.656;5.298;2024-03-25T01:35:55;100852.20;;;14.95;62.11
84593;BME280;74832;51.656;5.298;2024-03-25T01:36:26;100853.70;;;14.99;61.98
84593;BME280;74832;51.656;5.298;2024-03-25T01:36:56;100851.50;;;15.01;61.93
84593;BME280;74832;51.656;5.298;2024-03-25T01:37:27;100851.45;;;14.97;62.05
84593;BME280;74832;51.656;5.298;2024-03-25T01:37:58;100852.41;;;15.02;61.95
84593;BME280;74832;51.656;5.298;2024-03-25T01:38:28;100853.37;;;14.96;62.13
84593;BME280;74832;51.656;5.298;2024-03-25T01:38:58;100850.54;;;14.96;62.04
84593;BME280;74832;51.656;5.298;2024-03-25T01:39:29;100851.13;;;14.98;62.05
84593;BME280;74832;51.656;5.298;2024-03-25T01:39:59;100851.29;;;14.99;61.98
84593;BME280;74832;51.656;5.298;2024-03-25T01:40:29;100849.78;;;15.00;61.92
84593;BME280;74832;51.656;5.298;2024-03-25T01:41:07;100850.41;;;15.01;61.91
84593;BME280;74832;51.656;5.298;2024-03-25T01:41:37;100849.20;;;14.99;62.06
84593;BME280;74832;51.656;5.298;2024-03-25T01:42:08;100848.63;;;14.97;62.00
84593;BME280;74832;51.656;5.298;2024-03-25T01:42:38;100849.84;;;15.06;61.76
84593;BME280;74832;51.656;5.298;2024-03-25T01:43:08;100847.06;;;14.98;61.93
84593;BME280;74832;51.656;5.298;2024-03-25T01:43:39;100846.54;;;15.05;61.79
84593;BME280;74832;51.656;5.298;2024-03-25T01:44:09;100847.93;;;14.98;61.96
84593;BME280;74832;51.656;5.298;2024-03-25T01:44:40;100845.39;;;14.99;61.88
84593;BME280;74832;51.656;5.298;2024-03-25T01:45:10;100844.92;;;15.01;61.87
84593;BME280;74832;51.656;5.298;2024-03-25T01:45:40;100845.53;;;14.99;61.94
84593;BME280;74832;51.656;5.298;2024-03-25T01:46:12;100844.94;;;15.01;61.88
84593;BME280;74832;51.656;5.298;2024-03-25T01:46:42;100842.05;;;15.00;61.88
84593;BME280;74832;51.656;5.298;2024-03-25T01:47:13;100843.48;;;14.98;61.88
84593;BME280;74832;51.656;5.298;2024-03-25T01:47:43;100841.74;;;15.03;61.82
84593;BME280;74832;51.656;5.298;2024-03-25T01:48:14;100841.75;;;14.96;61.95
84593;BME280;74832;51.656;5.298;2024-03-25T01:48:44;100842.64;;;15.00;61.95
84593;BME280;74832;51.656;5.298;2024-03-25T01:49:15;100841.07;;;15.05;61.68
84593;BME280;74832;51.656;5.298;2024-03-25T01:49:46;100839.58;;;15.08;61.69
84593;BME280;74832;51.656;5.298;2024-03-25T01:50:16;100837.56;;;15.06;61.63
84593;BME280;74832;51.656;5.298;2024-03-25T01:50:47;100838.15;;;14.98;61.80
84593;BME280;74832;51.656;5.298;2024-03-25T01:51:18;100838.46;;;14.99;61.87
84593;BME280;74832;51.656;5.298;2024-03-25T01:51:49;100837.41;;;15.00;61.82
84593;BME280;74832;51.656;5.298;2024-03-25T01:52:20;100836.45;;;15.05;61.62
84593;BME280;74832;51.656;5.298;2024-03-25T01:52:51;100837.32;;;15.00;61.75
84593;BME280;74832;51.656;5.298;2024-03-25T01:53:22;100835.54;;;14.99;61.80
84593;BME280;74832;51.656;5.298;2024-03-25T01:53:54;100836.24;;;15.04;61.68
84593;BME280;74832;51.656;5.298;2024-03-25T01:54:25;100840.34;;;15.07;61.57
84593;BME280;74832;51.656;5.298;2024-03-25T01:54:56;100837.89;;;15.10;61.46
84593;BME280;74832;51.656;5.298;2024-03-25T01:55:28;100840.71;;;15.02;61.85
84593;BME280;74832;51.656;5.298;2024-03-25T01:56:00;100840.63;;;15.07;61.61
84593;BME280;74832;51.656;5.298;2024-03-25T01:56:32;100839.97;;;15.01;61.77
84593;BME280;74832;51.656;5.298;2024-03-25T01:57:04;100840.15;;;14.87;62.15
84593;BME280;74832;51.656;5.298;2024-03-25T01:57:34;100839.42;;;14.97;61.91
84593;BME280;74832;51.656;5.298;2024-03-25T01:58:05;100840.26;;;14.95;61.92
84593;BME280;74832;51.656;5.298;2024-03-25T01:58:35;100840.54;;;14.92;61.94
84593;BME280;74832;51.656;5.298;2024-03-25T01:59:06;100840.47;;;14.88;62.05
84593;BME280;74832;51.656;5.298;2024-03-25T01:59:37;100842.01;;;14.89;62.08
84593;BME280;74832;51.656;5.298;2024-03-25T02:00:09;100841.67;;;14.91;62.06
84593;BME280;74832;51.656;5.298;2024-03-25T02:00:40;100841.52;;;14.90;62.03
84593;BME280;74832;51.656;5.298;2024-03-25T02:01:11;100842.59;;;14.87;62.16
84593;BME280;74832;51.656;5.298;2024-03-25T02:01:43;100841.18;;;14.97;61.99
84593;BME280;74832;51.656;5.298;2024-03-25T02:02:55;100844.69;;;14.94;62.00
84593;BME280;74832;51.656;5.298;2024-03-25T02:03:25;100843.69;;;14.95;61.85
84593;BME280;74832;51.656;5.298;2024-03-25T02:03:56;100843.54;;;14.96;61.82
84593;BME280;74832;51.656;5.298;2024-03-25T02:04:27;100844.56;;;14.97;61.83
84593;BME280;74832;51.656;5.298;2024-03-25T02:04:57;100843.04;;;15.01;61.65
84593;BME280;74832;51.656;5.298;2024-03-25T02:05:28;100845.13;;;14.98;61.78
84593;BME280;74832;51.656;5.298;2024-03-25T02:06:01;100843.67;;;14.89;62.00
84593;BME280;74832;51.656;5.298;2024-03-25T02:06:33;100843.73;;;14.93;61.98
84593;BME280;74832;51.656;5.298;2024-03-25T02:07:05;100841.53;;;14.87;62.03
84593;BME280;74832;51.656;5.298;2024-03-25T02:07:36;100842.80;;;14.96;61.83
84593;BME280;74832;51.656;5.298;2024-03-25T02:08:06;100840.46;;;14.95;61.84
84593;BME280;74832;51.656;5.298;2024-03-25T02:08:37;100840.99;;;14.91;61.91
84593;BME280;74832;51.656;5.298;2024-03-25T02:09:09;100839.33;;;14.84;62.14
84593;BME280;74832;51.656;5.298;2024-03-25T02:09:40;100836.83;;;14.78;62.25
84593;BME280;74832;51.656;5.298;2024-03-25T02:10:11;100840.38;;;14.85;62.17
84593;BME280;74832;51.656;5.298;2024-03-25T02:10:42;100837.81;;;14.90;61.99
84593;BME280;74832;51.656;5.298;2024-03-25T02:11:13;100839.29;;;14.86;62.11
84593;BME280;74832;51.656;5.298;2024-03-25T02:11:44;100838.36;;;14.88;62.04
84593;BME280;74832;51.656;5.298;2024-03-25T02:12:14;100836.62;;;14.83;62.15
84593;BME280;74832;51.656;5.298;2024-03-25T02:12:46;100838.57;;;14.87;62.04
84593;BME280;74832;51.656;5.298;2024-03-25T02:13:17;100839.70;;;14.84;62.14
84593;BME280;74832;51.656;5.298;2024-03-25T02:13:47;100840.04;;;14.92;61.95
84593;BME280;74832;51.656;5.298;2024-03-25T02:14:18;100838.07;;;14.91;61.87
84593;BME280;74832;51.656;5.298;2024-03-25T02:14:49;100841.30;;;14.95;61.75
84593;BME280;74832;51.656;5.298;2024-03-25T02:15:20;100841.02;;;14.88;61.97
84593;BME280;74832;51.656;5.298;2024-03-25T02:15:50;100838.92;;;14.89;62.05
84593;BME280;74832;51.656;5.298;2024-03-25T02:16:21;100839.34;;;14.87;62.00
84593;BME280;74832;51.656;5.298;2024-03-25T02:16:51;100842.23;;;14.88;61.93
84593;BME280;74832;51.656;5.298;2024-03-25T02:17:21;100839.45;;;14.79;62.26
84593;BME280;74832;51.656;5.298;2024-03-25T02:17:52;100838.11;;;14.83;62.17
84593;BME280;74832;51.656;5.298;2024-03-25T02:18:22;100839.04;;;14.75;62.29
84593;BME280;74832;51.656;5.298;2024-03-25T02:18:53;100837.93;;;14.75;62.33
84593;BME280;74832;51.656;5.298;2024-03-25T02:19:24;100840.39;;;14.80;62.24
84593;BME280;74832;51.656;5.298;2024-03-25T02:19:54;100841.67;;;14.83;62.11
84593;BME280;74832;51.656;5.298;2024-03-25T02:20:25;100840.52;;;14.88;61.99
84593;BME280;74832;51.656;5.298;2024-03-25T02:20:55;100839.32;;;14.92;61.88
84593;BME280;74832;51.656;5.298;2024-03-25T02:21:25;100838.02;;;14.90;61.95
84593;BME280;74832;51.656;5.298;2024-03-25T02:21:56;100840.67;;;14.90;61.92
84593;BME280;74832;51.656;5.298;2024-03-25T02:22:26;100840.42;;;14.85;62.03
84593;BME280;74832;51.656;5.298;2024-03-25T02:22:57;100839.56;;;14.79;62.14
84593;BME280;74832;51.656;5.298;2024-03-25T02:23:28;100839.13;;;14.75;62.36
84593;BME280;74832;51.656;5.298;2024-03-25T02:23:59;100838.29;;;14.74;62.40
84593;BME280;74832;51.656;5.298;2024-03-25T02:24:31;100840.29;;;14.76;62.35
84593;BME280;74832;51.656;5.298;2024-03-25T02:25:06;100839.33;;;14.69;62.42
84593;BME280;74832;51.656;5.298;2024-03-25T02:25:38;100839.52;;;14.73;62.45
84593;BME280;74832;51.656;5.298;2024-03-25T02:26:09;100839.39;;;14.79;62.26
84593;BME280;74832;51.656;5.298;2024-03-25T02:26:39;100838.46;;;14.79;62.18
84593;BME280;74832;51.656;5.298;2024-03-25T02:27:10;100840.12;;;14.75;62.29
84593;BME280;74832;51.656;5.298;2024-03-25T02:27:40;100840.09;;;14.84;62.12
84593;BME280;74832;51.656;5.298;2024-03-25T02:28:11;100838.78;;;14.84;62.04
84593;BME280;74832;51.656;5.298;2024-03-25T02:28:41;100839.32;;;14.78;62.25
84593;BME280;74832;51.656;5.298;2024-03-25T02:29:11;100838.65;;;14.70;62.46
84593;BME280;74832;51.656;5.298;2024-03-25T02:29:42;100838.72;;;14.72;62.42
84593;BME280;74832;51.656;5.298;2024-03-25T02:30:13;100837.44;;;14.71;62.40
84593;BME280;74832;51.656;5.298;2024-03-25T02:30:43;100836.79;;;14.78;62.31
84593;BME280;74832;51.656;5.298;2024-03-25T02:31:14;100837.10;;;14.73;62.36
84593;BME280;74832;51.656;5.298;2024-03-25T02:31:44;100835.65;;;14.78;62.24
84593;BME280;74832;51.656;5.298;2024-03-25T02:32:15;100835.17;;;14.80;62.15
84593;BME280;74832;51.656;5.298;2024-03-25T02:32:45;100835.56;;;14.71;62.39
84593;BME280;74832;51.656;5.298;2024-03-25T02:33:15;100834.32;;;14.72;62.41
84593;BME280;74832;51.656;5.298;2024-03-25T02:33:46;100833.71;;;14.73;62.40
84593;BME280;74832;51.656;5.298;2024-03-25T02:34:16;100833.34;;;14.78;62.34
84593;BME280;74832;51.656;5.298;2024-03-25T02:34:51;100833.94;;;14.82;62.12
84593;BME280;74832;51.656;5.298;2024-03-25T02:35:22;100833.45;;;14.76;62.27
84593;BME280;74832;51.656;5.298;2024-03-25T02:35:54;100830.67;;;14.71;62.35
84593;BME280;74832;51.656;5.298;2024-03-25T02:36:25;100830.50;;;14.67;62.48
84593;BME280;74832;51.656;5.298;2024-03-25T02:36:55;100829.48;;;14.75;62.37
84593;BME280;74832;51.656;5.298;2024-03-25T02:37:26;100829.77;;;14.80;62.22
84593;BME280;74832;51.656;5.298;2024-03-25T02:37:57;100828.43;;;14.82;62.14
84593;BME280;74832;51.656;5.298;2024-03-25T02:38:28;100828.04;;;14.77;62.20
84593;BME280;74832;51.656;5.298;2024-03-25T02:38:59;100825.57;;;14.84;62.08
84593;BME280;74832;51.656;5.298;2024-03-25T02:39:29;100825.16;;;14.83;62.04
84593;BME280;74832;51.656;5.298;2024-03-25T02:40:01;100823.16;;;14.83;62.05
84593;BME280;74832;51.656;5.298;2024-03-25T02:40:32;100823.11;;;14.78;62.23